createdAt,value
2022-12-15T00:00:51.945Z,11.80
2022-12-15T00:01:51.849Z,13.10
2022-12-15T00:02:51.920Z,12.80
2022-12-15T00:03:51.838Z,13.10
2022-12-15T00:04:51.729Z,12.50
2022-12-15T00:05:51.696Z,12.20
2022-12-15T00:06:51.688Z,12.00
2022-12-15T00:07:51.625Z,12.30
2022-12-15T00:08:51.594Z,13.50
2022-12-15T00:09:51.561Z,12.40
2022-12-15T00:10:51.526Z,13.80
2022-12-15T00:11:51.492Z,15.30
2022-12-15T00:12:51.464Z,13.40
2022-12-15T00:13:51.425Z,12.90
2022-12-15T00:14:51.393Z,12.60
2022-12-15T00:15:51.510Z,12.30
2022-12-15T00:16:51.324Z,13.30
2022-12-15T00:17:51.311Z,14.10
2022-12-15T00:18:51.256Z,11.00
2022-12-15T00:19:51.222Z,13.00
2022-12-15T00:20:51.190Z,11.10
2022-12-15T00:21:51.155Z,10.20
2022-12-15T00:22:51.122Z,12.20
2022-12-15T00:23:51.087Z,9.60
2022-12-15T00:24:51.056Z,10.60
2022-12-15T00:25:51.021Z,10.70
2022-12-15T00:26:50.989Z,13.20
2022-12-15T00:27:50.954Z,13.90
2022-12-15T00:28:50.920Z,10.30
2022-12-15T00:29:50.889Z,12.10
2022-12-15T00:30:50.914Z,14.40
2022-12-15T00:31:50.935Z,11.50
2022-12-15T00:32:50.786Z,13.40
2022-12-15T00:33:50.779Z,13.00
2022-12-15T00:34:50.720Z,24.60
2022-12-15T00:35:50.690Z,21.00
2022-12-15T00:36:50.653Z,17.30
2022-12-15T00:37:50.617Z,18.70
2022-12-15T00:38:50.588Z,15.80
2022-12-15T00:39:50.550Z,22.90
2022-12-15T00:40:50.522Z,30.00
2022-12-15T00:41:50.491Z,21.10
2022-12-15T00:42:50.457Z,18.80
2022-12-15T00:43:50.417Z,18.70
2022-12-15T00:44:50.387Z,17.00
2022-12-15T00:45:50.352Z,24.40
2022-12-15T00:46:50.392Z,29.50
2022-12-15T00:47:50.285Z,19.60
2022-12-15T00:48:50.247Z,29.30
2022-12-15T00:49:50.235Z,21.50
2022-12-15T00:50:50.182Z,15.00
2022-12-15T00:51:50.150Z,18.60
2022-12-15T00:52:50.115Z,22.20
2022-12-15T00:53:50.080Z,15.30
2022-12-15T00:54:50.045Z,28.90
2022-12-15T00:55:50.012Z,26.70
2022-12-15T00:56:49.984Z,52.70
2022-12-15T00:57:49.943Z,31.50
2022-12-15T00:58:49.915Z,24.10
2022-12-15T00:59:49.877Z,23.30
2022-12-15T01:00:49.851Z,17.40
2022-12-15T01:01:50.002Z,13.20
2022-12-15T01:02:50.093Z,15.70
2022-12-15T01:03:49.797Z,20.10
2022-12-15T01:04:49.708Z,20.70
2022-12-15T01:05:49.700Z,16.20
2022-12-15T01:06:49.640Z,13.00
2022-12-15T01:07:50.112Z,12.20
2022-12-15T01:08:49.577Z,12.60
2022-12-15T01:09:49.540Z,10.40
2022-12-15T01:10:49.513Z,10.00
2022-12-15T01:11:49.468Z,11.70
2022-12-15T01:12:49.437Z,11.70
2022-12-15T01:13:49.914Z,11.30
2022-12-15T01:14:49.372Z,11.30
2022-12-15T01:15:49.380Z,10.80
2022-12-15T01:16:49.302Z,11.00
2022-12-15T01:17:49.269Z,10.60
2022-12-15T01:18:49.533Z,10.80
2022-12-15T01:19:49.198Z,12.20
2022-12-15T01:20:49.165Z,14.20
2022-12-15T01:21:49.155Z,13.00
2022-12-15T01:22:49.099Z,13.10
2022-12-15T01:23:49.063Z,10.50
2022-12-15T01:24:49.033Z,15.30
2022-12-15T01:25:49.570Z,13.10
2022-12-15T01:26:48.964Z,13.20
2022-12-15T01:27:48.931Z,12.00
2022-12-15T01:28:48.903Z,11.70
2022-12-15T01:29:48.871Z,14.90
2022-12-15T01:30:48.834Z,15.90
2022-12-15T01:31:49.742Z,11.50
2022-12-15T01:32:48.764Z,12.60
2022-12-15T01:33:48.727Z,10.40
2022-12-15T01:34:48.695Z,13.30
2022-12-15T01:35:48.660Z,13.70
2022-12-15T01:36:48.628Z,12.80
2022-12-15T01:37:49.957Z,14.30
2022-12-15T01:38:53.852Z,13.00
2022-12-15T01:39:48.526Z,10.90
2022-12-15T01:40:48.495Z,11.50
2022-12-15T01:41:48.460Z,13.70
2022-12-15T01:42:48.424Z,15.40
2022-12-15T01:43:49.753Z,13.40
2022-12-15T01:44:48.358Z,17.20
2022-12-15T01:45:48.323Z,12.70
2022-12-15T01:46:48.394Z,13.40
2022-12-15T01:47:48.256Z,12.00
2022-12-15T01:48:48.222Z,11.80
2022-12-15T01:49:49.307Z,14.30
2022-12-15T01:50:48.156Z,12.20
2022-12-15T01:51:48.122Z,14.30
2022-12-15T01:52:49.708Z,12.10
2022-12-15T01:53:50.176Z,14.60
2022-12-15T01:54:48.509Z,12.80
2022-12-15T01:55:49.750Z,12.80
2022-12-15T01:56:47.952Z,12.40
2022-12-15T01:57:47.923Z,12.30
2022-12-15T01:58:47.881Z,11.40
2022-12-15T01:59:47.849Z,12.50
2022-12-15T02:00:47.914Z,11.10
2022-12-15T02:01:49.884Z,11.00
2022-12-15T02:02:47.845Z,12.90
2022-12-15T02:03:47.711Z,12.10
2022-12-15T02:04:47.679Z,15.20
2022-12-15T02:05:47.644Z,13.00
2022-12-15T02:06:47.612Z,13.30
2022-12-15T02:07:47.582Z,13.60
2022-12-15T02:08:47.552Z,13.50
2022-12-15T02:09:47.534Z,13.40
2022-12-15T02:10:47.473Z,12.20
2022-12-15T02:11:47.442Z,15.00
2022-12-15T02:12:47.405Z,12.50
2022-12-15T02:13:47.373Z,13.60
2022-12-15T02:14:47.337Z,14.30
2022-12-15T02:15:47.306Z,15.50
2022-12-15T02:16:47.367Z,14.20
2022-12-15T02:17:47.237Z,15.70
2022-12-15T02:18:47.202Z,15.70
2022-12-15T02:19:47.169Z,14.30
2022-12-15T02:20:47.135Z,14.90
2022-12-15T02:21:47.104Z,15.30
2022-12-15T02:22:47.063Z,10.60
2022-12-15T02:23:47.032Z,13.50
2022-12-15T02:24:49.669Z,16.30
2022-12-15T02:25:47.032Z,13.10
2022-12-15T02:26:46.927Z,12.70
2022-12-15T02:27:46.896Z,13.40
2022-12-15T02:28:46.861Z,14.20
2022-12-15T02:29:46.829Z,11.00
2022-12-15T02:30:46.793Z,11.40
2022-12-15T02:31:46.796Z,12.80
2022-12-15T02:32:46.724Z,11.40
2022-12-15T02:33:46.691Z,11.00
2022-12-15T02:34:46.655Z,12.80
2022-12-15T02:35:46.625Z,12.40
2022-12-15T02:36:46.588Z,13.80
2022-12-15T02:37:49.879Z,13.50
2022-12-15T02:38:46.521Z,13.20
2022-12-15T02:39:46.486Z,14.10
2022-12-15T02:40:46.452Z,14.00
2022-12-15T02:41:46.443Z,12.60
2022-12-15T02:42:46.381Z,12.90
2022-12-15T02:43:46.351Z,14.20
2022-12-15T02:44:46.316Z,11.10
2022-12-15T02:45:46.333Z,13.90
2022-12-15T02:46:46.248Z,11.80
2022-12-15T02:47:46.545Z,11.90
2022-12-15T02:48:46.178Z,11.40
2022-12-15T02:49:46.147Z,14.80
2022-12-15T02:50:46.109Z,14.70
2022-12-15T02:51:46.079Z,11.40
2022-12-15T02:52:46.044Z,13.00
2022-12-15T02:53:46.011Z,14.50
2022-12-15T02:54:45.976Z,15.00
2022-12-15T02:55:45.942Z,10.90
2022-12-15T02:56:45.908Z,11.40
2022-12-15T02:57:45.897Z,12.60
2022-12-15T02:58:45.841Z,12.20
2022-12-15T02:59:45.806Z,11.10
2022-12-15T03:00:45.849Z,10.90
2022-12-15T03:01:46.012Z,11.20
2022-12-15T03:02:45.788Z,9.50
2022-12-15T03:03:45.673Z,11.40
2022-12-15T03:04:45.680Z,11.30
2022-12-15T03:05:45.603Z,10.30
2022-12-15T03:06:45.569Z,11.90
2022-12-15T03:07:45.534Z,10.90
2022-12-15T03:08:45.497Z,12.00
2022-12-15T03:09:45.467Z,13.00
2022-12-15T03:10:45.434Z,13.80
2022-12-15T03:11:45.399Z,10.90
2022-12-15T03:12:45.364Z,13.70
2022-12-15T03:13:45.355Z,12.50
2022-12-15T03:14:45.294Z,13.70
2022-12-15T03:15:45.261Z,11.00
2022-12-15T03:16:45.275Z,10.90
2022-12-15T03:17:45.195Z,11.80
2022-12-15T03:18:45.160Z,10.70
2022-12-15T03:19:45.276Z,11.50
2022-12-15T03:20:45.091Z,11.30
2022-12-15T03:21:45.059Z,12.90
2022-12-15T03:22:45.023Z,10.20
2022-12-15T03:23:44.992Z,13.20
2022-12-15T03:24:44.959Z,12.70
2022-12-15T03:25:44.926Z,12.20
2022-12-15T03:26:44.888Z,13.50
2022-12-15T03:27:44.858Z,15.00
2022-12-15T03:28:44.821Z,12.70
2022-12-15T03:29:44.811Z,12.00
2022-12-15T03:30:44.898Z,12.10
2022-12-15T03:31:44.816Z,11.10
2022-12-15T03:32:44.688Z,10.20
2022-12-15T03:33:44.656Z,11.10
2022-12-15T03:34:44.620Z,12.00
2022-12-15T03:35:44.585Z,10.80
2022-12-15T03:36:44.554Z,12.90
2022-12-15T03:37:44.520Z,11.10
2022-12-15T03:38:44.482Z,12.10
2022-12-15T03:39:44.452Z,13.20
2022-12-15T03:40:44.414Z,11.80
2022-12-15T03:41:44.383Z,11.70
2022-12-15T03:42:44.348Z,12.00
2022-12-15T03:43:44.318Z,11.30
2022-12-15T03:44:44.279Z,11.70
2022-12-15T03:45:44.352Z,14.20
2022-12-15T03:46:44.219Z,9.60
2022-12-15T03:47:44.183Z,14.50
2022-12-15T03:48:44.154Z,12.50
2022-12-15T03:49:44.114Z,13.70
2022-12-15T03:50:44.078Z,14.40
2022-12-15T03:51:44.047Z,11.90
2022-12-15T03:52:44.011Z,10.10
2022-12-15T03:53:43.983Z,10.20
2022-12-15T03:54:43.942Z,9.90
2022-12-15T03:55:43.917Z,12.90
2022-12-15T03:56:43.877Z,11.10
2022-12-15T03:57:43.849Z,13.70
2022-12-15T03:58:43.807Z,11.00
2022-12-15T03:59:43.778Z,12.20
2022-12-15T04:00:43.741Z,13.70
2022-12-15T04:01:43.854Z,11.20
2022-12-15T04:02:43.852Z,11.00
2022-12-15T04:03:43.699Z,11.60
2022-12-15T04:04:43.605Z,11.90
2022-12-15T04:05:43.574Z,10.20
2022-12-15T04:06:43.539Z,11.00
2022-12-15T04:07:43.507Z,13.10
2022-12-15T04:08:43.471Z,10.00
2022-12-15T04:09:43.440Z,10.90
2022-12-15T04:10:43.402Z,10.40
2022-12-15T04:11:43.369Z,9.40
2022-12-15T04:12:43.336Z,11.40
2022-12-15T04:13:43.315Z,10.30
2022-12-15T04:14:43.267Z,11.30
2022-12-15T04:15:43.233Z,9.80
2022-12-15T04:16:43.243Z,11.10
2022-12-15T04:17:43.188Z,11.70
2022-12-15T04:18:43.133Z,10.60
2022-12-15T04:19:43.101Z,12.80
2022-12-15T04:20:43.067Z,8.70
2022-12-15T04:21:43.036Z,11.50
2022-12-15T04:22:43.001Z,11.20
2022-12-15T04:23:42.965Z,11.70
2022-12-15T04:24:42.932Z,10.90
2022-12-15T04:25:42.952Z,11.40
2022-12-15T04:26:42.863Z,10.60
2022-12-15T04:27:42.834Z,9.10
2022-12-15T04:28:42.799Z,11.40
2022-12-15T04:29:42.765Z,12.10
2022-12-15T04:30:42.815Z,10.40
2022-12-15T04:31:42.703Z,13.50
2022-12-15T04:32:42.663Z,12.40
2022-12-15T04:33:42.652Z,10.70
2022-12-15T04:34:42.596Z,12.80
2022-12-15T04:35:42.566Z,11.20
2022-12-15T04:36:42.533Z,12.30
2022-12-15T04:37:42.502Z,11.30
2022-12-15T04:38:49.898Z,9.90
2022-12-15T04:39:42.431Z,11.10
2022-12-15T04:40:42.445Z,13.40
2022-12-15T04:41:42.364Z,11.80
2022-12-15T04:42:42.328Z,12.20
2022-12-15T04:43:42.296Z,12.50
2022-12-15T04:44:42.261Z,11.90
2022-12-15T04:45:42.324Z,9.50
2022-12-15T04:46:42.234Z,10.80
2022-12-15T04:47:42.162Z,11.90
2022-12-15T04:48:42.136Z,11.50
2022-12-15T04:49:42.110Z,12.20
2022-12-15T04:50:42.057Z,10.70
2022-12-15T04:51:42.022Z,11.50
2022-12-15T04:52:41.993Z,14.70
2022-12-15T04:53:41.961Z,12.30
2022-12-15T04:54:41.924Z,13.00
2022-12-15T04:55:41.892Z,12.30
2022-12-15T04:56:41.863Z,11.20
2022-12-15T04:57:41.824Z,10.50
2022-12-15T04:58:41.789Z,10.80
2022-12-15T04:59:41.760Z,12.40
2022-12-15T05:00:41.722Z,11.50
2022-12-15T05:01:41.840Z,12.40
2022-12-15T05:02:41.710Z,11.00
2022-12-15T05:03:41.623Z,10.90
2022-12-15T05:04:41.677Z,11.00
2022-12-15T05:05:41.629Z,12.10
2022-12-15T05:06:41.522Z,9.70
2022-12-15T05:07:41.487Z,12.70
2022-12-15T05:08:41.453Z,11.30
2022-12-15T05:09:41.421Z,11.50
2022-12-15T05:10:41.437Z,10.20
2022-12-15T05:11:41.351Z,10.10
2022-12-15T05:12:41.316Z,11.00
2022-12-15T05:13:41.284Z,11.90
2022-12-15T05:14:41.249Z,10.50
2022-12-15T05:15:41.301Z,11.40
2022-12-15T05:16:41.295Z,10.20
2022-12-15T05:17:41.822Z,10.80
2022-12-15T05:18:41.114Z,11.40
2022-12-15T05:19:41.084Z,10.80
2022-12-15T05:20:41.099Z,10.60
2022-12-15T05:21:41.041Z,13.40
2022-12-15T05:22:40.981Z,12.90
2022-12-15T05:23:40.949Z,11.50
2022-12-15T05:24:40.915Z,10.00
2022-12-15T05:25:40.884Z,11.80
2022-12-15T05:26:40.856Z,9.40
2022-12-15T05:27:40.816Z,9.80
2022-12-15T05:28:40.780Z,10.60
2022-12-15T05:29:40.754Z,12.60
2022-12-15T05:30:40.758Z,12.70
2022-12-15T05:31:40.682Z,12.70
2022-12-15T05:32:40.648Z,11.30
2022-12-15T05:33:40.617Z,10.30
2022-12-15T05:34:40.583Z,12.90
2022-12-15T05:35:40.548Z,11.30
2022-12-15T05:36:40.514Z,10.30
2022-12-15T05:37:40.503Z,10.80
2022-12-15T05:38:40.449Z,11.30
2022-12-15T05:39:40.413Z,10.40
2022-12-15T05:40:40.378Z,13.00
2022-12-15T05:41:40.399Z,12.00
2022-12-15T05:42:40.318Z,13.70
2022-12-15T05:43:40.284Z,11.80
2022-12-15T05:44:40.246Z,14.60
2022-12-15T05:45:40.217Z,12.60
2022-12-15T05:46:40.304Z,10.60
2022-12-15T05:47:40.145Z,11.60
2022-12-15T05:48:40.113Z,12.10
2022-12-15T05:49:40.080Z,11.50
2022-12-15T05:50:40.045Z,12.90
2022-12-15T05:51:40.021Z,15.00
2022-12-15T05:52:40.783Z,12.40
2022-12-15T05:53:39.964Z,13.30
2022-12-15T05:54:39.911Z,14.20
2022-12-15T05:55:39.879Z,12.80
2022-12-15T05:56:39.896Z,12.70
2022-12-15T05:57:39.814Z,13.50
2022-12-15T05:58:44.870Z,11.90
2022-12-15T05:59:39.749Z,13.10
2022-12-15T06:00:39.709Z,15.40
2022-12-15T06:01:39.806Z,13.40
2022-12-15T06:02:39.725Z,13.10
2022-12-15T06:03:39.616Z,14.30
2022-12-15T06:04:39.669Z,14.20
2022-12-15T06:05:39.547Z,12.90
2022-12-15T06:06:39.511Z,14.50
2022-12-15T06:07:39.480Z,15.00
2022-12-15T06:08:39.443Z,15.30
2022-12-15T06:09:39.434Z,16.40
2022-12-15T06:10:39.378Z,13.00
2022-12-15T06:11:39.352Z,14.20
2022-12-15T06:12:39.312Z,14.40
2022-12-15T06:13:39.279Z,12.70
2022-12-15T06:14:39.252Z,14.40
2022-12-15T06:15:39.212Z,13.20
2022-12-15T06:16:49.834Z,13.30
2022-12-15T06:17:39.145Z,14.30
2022-12-15T06:18:39.110Z,14.70
2022-12-15T06:19:39.078Z,14.00
2022-12-15T06:20:39.043Z,14.50
2022-12-15T06:21:39.012Z,16.50
2022-12-15T06:22:38.980Z,15.20
2022-12-15T06:23:38.941Z,13.00
2022-12-15T06:24:38.912Z,13.20
2022-12-15T06:25:38.997Z,12.10
2022-12-15T06:26:38.848Z,15.10
2022-12-15T06:27:38.810Z,14.00
2022-12-15T06:28:38.780Z,14.70
2022-12-15T06:29:38.742Z,14.90
2022-12-15T06:30:38.711Z,14.90
2022-12-15T06:31:38.745Z,14.10
2022-12-15T06:32:38.641Z,14.90
2022-12-15T06:33:38.610Z,13.50
2022-12-15T06:34:38.578Z,13.70
2022-12-15T06:35:38.543Z,16.00
2022-12-15T06:36:38.508Z,15.50
2022-12-15T06:37:38.476Z,16.40
2022-12-15T06:38:38.442Z,17.80
2022-12-15T06:39:38.406Z,18.70
2022-12-15T06:40:38.469Z,18.40
2022-12-15T06:41:38.354Z,13.40
2022-12-15T06:42:38.307Z,16.80
2022-12-15T06:43:38.275Z,19.10
2022-12-15T06:44:38.244Z,16.00
2022-12-15T06:45:38.207Z,17.90
2022-12-15T06:46:38.244Z,15.10
2022-12-15T06:47:38.138Z,19.10
2022-12-15T06:48:38.106Z,18.70
2022-12-15T06:49:38.074Z,18.30
2022-12-15T06:50:38.040Z,19.20
2022-12-15T06:51:38.009Z,17.80
2022-12-15T06:52:37.972Z,17.90
2022-12-15T06:53:38.012Z,19.10
2022-12-15T06:54:37.934Z,22.90
2022-12-15T06:55:37.918Z,18.70
2022-12-15T06:56:37.872Z,19.30
2022-12-15T06:57:37.932Z,20.30
2022-12-15T06:58:37.841Z,22.30
2022-12-15T06:59:37.787Z,19.50
2022-12-15T07:00:37.705Z,20.00
2022-12-15T07:01:37.940Z,20.20
2022-12-15T07:02:37.825Z,18.10
2022-12-15T07:03:38.344Z,21.80
2022-12-15T07:04:37.571Z,23.10
2022-12-15T07:05:37.538Z,20.60
2022-12-15T07:06:37.766Z,22.40
2022-12-15T07:07:37.468Z,19.80
2022-12-15T07:08:41.293Z,17.40
2022-12-15T07:09:37.401Z,23.60
2022-12-15T07:10:37.370Z,20.40
2022-12-15T07:11:37.334Z,20.60
2022-12-15T07:12:37.304Z,23.70
2022-12-15T07:13:37.376Z,20.40
2022-12-15T07:14:37.249Z,21.00
2022-12-15T07:15:37.203Z,21.60
2022-12-15T07:16:37.280Z,22.30
2022-12-15T07:17:37.135Z,20.80
2022-12-15T07:18:37.101Z,18.90
2022-12-15T07:19:37.071Z,21.80
2022-12-15T07:20:37.038Z,19.80
2022-12-15T07:21:37.003Z,20.90
2022-12-15T07:22:36.966Z,20.20
2022-12-15T07:23:53.396Z,20.80
2022-12-15T07:24:36.905Z,20.20
2022-12-15T07:25:36.863Z,21.00
2022-12-15T07:26:36.835Z,20.00
2022-12-15T07:27:36.797Z,19.50
2022-12-15T07:28:36.776Z,19.60
2022-12-15T07:29:36.751Z,20.90
2022-12-15T07:30:38.881Z,18.70
2022-12-15T07:31:36.737Z,20.10
2022-12-15T07:32:36.628Z,21.50
2022-12-15T07:33:36.597Z,20.40
2022-12-15T07:34:36.562Z,23.00
2022-12-15T07:35:36.527Z,23.00
2022-12-15T07:36:36.496Z,19.00
2022-12-15T07:37:36.463Z,21.70
2022-12-15T07:38:36.433Z,23.30
2022-12-15T07:39:36.392Z,22.60
2022-12-15T07:40:36.360Z,19.80
2022-12-15T07:41:36.326Z,22.70
2022-12-15T07:42:36.299Z,20.80
2022-12-15T07:43:36.777Z,17.80
2022-12-15T07:44:36.229Z,19.90
2022-12-15T07:45:36.284Z,22.40
2022-12-15T07:46:36.218Z,20.70
2022-12-15T07:47:36.126Z,20.70
2022-12-15T07:48:36.092Z,20.60
2022-12-15T07:49:36.059Z,22.70
2022-12-15T07:50:36.026Z,22.20
2022-12-15T07:51:35.995Z,19.00
2022-12-15T07:52:35.958Z,21.00
2022-12-15T07:53:36.136Z,19.10
2022-12-15T07:54:35.890Z,19.40
2022-12-15T07:55:57.577Z,21.90
2022-12-15T07:56:39.176Z,20.80
2022-12-15T07:57:35.787Z,20.50
2022-12-15T07:58:35.789Z,20.20
2022-12-15T07:59:35.719Z,22.70
2022-12-15T08:00:35.689Z,21.90
2022-12-15T08:01:35.807Z,21.50
2022-12-15T08:02:35.848Z,21.00
2022-12-15T08:03:36.421Z,21.90
2022-12-15T08:04:35.574Z,22.80
2022-12-15T08:05:35.516Z,21.30
2022-12-15T08:06:35.484Z,21.00
2022-12-15T08:07:35.461Z,21.00
2022-12-15T08:08:35.983Z,25.70
2022-12-15T08:09:35.385Z,21.40
2022-12-15T08:10:35.355Z,21.70
2022-12-15T08:11:35.355Z,21.70
2022-12-15T08:12:35.281Z,21.10
2022-12-15T08:14:05.070Z,22.30
2022-12-15T08:14:35.216Z,23.70
2022-12-15T08:15:35.181Z,21.70
2022-12-15T08:16:35.252Z,21.30
2022-12-15T08:17:35.228Z,23.50
2022-12-15T08:18:35.085Z,21.60
2022-12-15T08:19:35.044Z,22.50
2022-12-15T08:20:35.018Z,23.30
2022-12-15T08:21:34.987Z,20.90
2022-12-15T08:22:34.947Z,21.60
2022-12-15T08:23:34.967Z,24.90
2022-12-15T08:24:34.882Z,22.60
2022-12-15T08:25:34.845Z,21.90
2022-12-15T08:26:34.809Z,22.50
2022-12-15T08:27:34.780Z,24.50
2022-12-15T08:28:34.743Z,22.30
2022-12-15T08:29:51.505Z,22.60
2022-12-15T08:30:34.677Z,23.60
2022-12-15T08:31:34.692Z,27.30
2022-12-15T08:32:34.609Z,25.30
2022-12-15T08:33:34.841Z,24.30
2022-12-15T08:34:34.540Z,24.10
2022-12-15T08:35:55.773Z,21.90
2022-12-15T08:36:34.474Z,21.50
2022-12-15T08:37:34.439Z,26.80
2022-12-15T08:38:34.405Z,25.40
2022-12-15T08:39:34.371Z,22.00
2022-12-15T08:40:34.339Z,26.70
2022-12-15T08:41:34.304Z,22.30
2022-12-15T08:42:34.270Z,22.60
2022-12-15T08:43:34.766Z,24.90
2022-12-15T08:44:34.201Z,22.00
2022-12-15T08:45:34.223Z,25.70
2022-12-15T08:46:34.291Z,27.00
2022-12-15T08:47:34.102Z,22.30
2022-12-15T08:48:34.081Z,23.80
2022-12-15T08:49:34.052Z,30.00
2022-12-15T08:50:34.003Z,23.80
2022-12-15T08:51:33.967Z,25.60
2022-12-15T08:52:33.938Z,24.50
2022-12-15T08:53:33.906Z,25.90
2022-12-15T08:54:33.875Z,26.50
2022-12-15T08:55:33.833Z,25.70
2022-12-15T08:56:33.802Z,26.00
2022-12-15T08:57:33.765Z,25.60
2022-12-15T08:58:33.736Z,25.40
2022-12-15T08:59:33.696Z,24.40
2022-12-15T09:00:33.672Z,26.10
2022-12-15T09:01:33.853Z,28.50
2022-12-15T09:02:33.728Z,22.10
2022-12-15T09:03:34.048Z,23.50
2022-12-15T09:04:33.560Z,23.00
2022-12-15T09:05:33.521Z,23.30
2022-12-15T09:06:33.475Z,27.70
2022-12-15T09:07:33.430Z,25.50
2022-12-15T09:08:33.400Z,25.10
2022-12-15T09:09:33.366Z,25.00
2022-12-15T09:10:33.329Z,26.70
2022-12-15T09:11:33.294Z,26.80
2022-12-15T09:12:33.266Z,23.60
2022-12-15T09:13:33.715Z,29.10
2022-12-15T09:14:33.197Z,25.70
2022-12-15T09:16:00.223Z,28.90
2022-12-15T09:16:33.282Z,26.80
2022-12-15T09:17:33.146Z,25.00
2022-12-15T09:18:33.061Z,27.50
2022-12-15T09:19:33.027Z,27.50
2022-12-15T09:20:32.998Z,26.10
2022-12-15T09:21:32.987Z,23.80
2022-12-15T09:22:32.935Z,24.00
2022-12-15T09:23:33.354Z,28.00
2022-12-15T09:24:35.086Z,26.80
2022-12-15T09:25:32.829Z,27.10
2022-12-15T09:26:32.803Z,25.20
2022-12-15T09:27:32.764Z,24.50
2022-12-15T09:28:32.731Z,25.30
2022-12-15T09:29:32.696Z,23.70
2022-12-15T09:30:32.758Z,24.40
2022-12-15T09:31:32.706Z,26.50
2022-12-15T09:32:32.595Z,31.10
2022-12-15T09:33:33.003Z,25.90
2022-12-15T09:34:32.529Z,26.90
2022-12-15T09:35:32.494Z,24.60
2022-12-15T09:36:32.744Z,29.20
2022-12-15T09:37:32.543Z,25.80
2022-12-15T09:38:32.399Z,24.00
2022-12-15T09:39:32.365Z,26.60
2022-12-15T09:40:32.333Z,26.40
2022-12-15T09:41:32.300Z,25.80
2022-12-15T09:42:32.275Z,24.20
2022-12-15T09:43:34.696Z,26.30
2022-12-15T09:44:32.204Z,25.90
2022-12-15T09:45:32.168Z,24.10
2022-12-15T09:46:32.169Z,25.20
2022-12-15T09:47:32.101Z,22.20
2022-12-15T09:48:32.073Z,26.50
2022-12-15T09:49:32.039Z,24.40
2022-12-15T09:50:32.007Z,24.10
2022-12-15T09:51:31.976Z,23.90
2022-12-15T09:52:31.941Z,22.40
2022-12-15T09:53:54.305Z,26.10
2022-12-15T09:54:31.935Z,29.20
2022-12-15T09:55:31.846Z,25.90
2022-12-15T09:56:31.814Z,22.30
2022-12-15T09:57:31.779Z,26.60
2022-12-15T09:58:31.746Z,23.60
2022-12-15T09:59:31.718Z,28.80
2022-12-15T10:00:31.686Z,29.70
2022-12-15T10:01:31.691Z,25.30
2022-12-15T10:02:31.709Z,23.00
2022-12-15T10:03:32.233Z,26.50
2022-12-15T10:04:31.691Z,24.80
2022-12-15T10:05:57.737Z,26.30
2022-12-15T10:06:33.548Z,25.90
2022-12-15T10:07:31.463Z,25.20
2022-12-15T10:08:31.431Z,26.80
2022-12-15T10:09:31.433Z,25.80
2022-12-15T10:10:31.371Z,25.40
2022-12-15T10:11:31.338Z,22.10
2022-12-15T10:12:31.306Z,24.30
2022-12-15T10:13:31.808Z,22.80
2022-12-15T10:14:31.245Z,24.50
2022-12-15T10:15:31.287Z,26.90
2022-12-15T10:16:31.191Z,25.40
2022-12-15T10:17:31.155Z,25.00
2022-12-15T10:18:31.121Z,21.90
2022-12-15T10:19:31.087Z,24.80
2022-12-15T10:20:31.060Z,24.70
2022-12-15T10:21:31.028Z,26.40
2022-12-15T10:22:30.998Z,26.30
2022-12-15T10:23:31.443Z,26.30
2022-12-15T10:25:08.015Z,24.30
2022-12-15T10:25:31.171Z,26.80
2022-12-15T10:26:30.871Z,27.30
2022-12-15T10:27:30.838Z,27.20
2022-12-15T10:28:30.808Z,27.00
2022-12-15T10:29:30.818Z,26.20
2022-12-15T10:30:30.820Z,28.00
2022-12-15T10:31:30.781Z,26.30
2022-12-15T10:32:30.686Z,24.30
2022-12-15T10:33:31.155Z,23.50
2022-12-15T10:34:30.675Z,25.50
2022-12-15T10:35:30.596Z,25.40
2022-12-15T10:36:30.563Z,25.90
2022-12-15T10:37:30.532Z,23.30
2022-12-15T10:38:30.496Z,24.30
2022-12-15T10:39:30.472Z,28.60
2022-12-15T10:40:30.440Z,26.40
2022-12-15T10:41:30.527Z,22.90
2022-12-15T10:42:30.385Z,23.10
2022-12-15T10:43:30.873Z,26.50
2022-12-15T10:44:32.326Z,24.30
2022-12-15T10:45:30.306Z,29.80
2022-12-15T10:46:30.279Z,25.60
2022-12-15T10:47:30.229Z,30.60
2022-12-15T10:48:30.197Z,24.60
2022-12-15T10:49:30.165Z,25.40
2022-12-15T10:50:30.135Z,24.10
2022-12-15T10:51:30.108Z,27.10
2022-12-15T10:52:30.074Z,26.60
2022-12-15T10:53:30.461Z,25.20
2022-12-15T10:54:30.018Z,24.90
2022-12-15T10:55:29.985Z,26.50
2022-12-15T10:56:33.785Z,25.70
2022-12-15T10:57:29.957Z,26.70
2022-12-15T10:58:29.910Z,27.60
2022-12-15T10:59:29.868Z,29.30
2022-12-15T11:00:29.834Z,25.60
2022-12-15T11:01:29.997Z,27.30
2022-12-15T11:02:30.075Z,27.20
2022-12-15T11:03:30.683Z,26.70
2022-12-15T11:04:29.886Z,24.30
2022-12-15T11:05:29.689Z,24.00
2022-12-15T11:06:29.658Z,26.70
2022-12-15T11:07:29.628Z,26.60
2022-12-15T11:08:29.600Z,24.60
2022-12-15T11:09:29.572Z,24.30
2022-12-15T11:10:29.541Z,24.60
2022-12-15T11:11:29.511Z,22.70
2022-12-15T11:12:29.481Z,26.30
2022-12-15T11:13:33.200Z,25.00
2022-12-15T11:14:29.521Z,27.60
2022-12-15T11:15:29.485Z,31.10
2022-12-15T11:16:29.361Z,28.10
2022-12-15T11:17:29.333Z,27.30
2022-12-15T11:18:29.301Z,35.70
2022-12-15T11:19:29.276Z,35.00
2022-12-15T11:20:29.240Z,29.60
2022-12-15T11:21:29.214Z,25.40
2022-12-15T11:22:29.181Z,26.10
2022-12-15T11:23:29.696Z,24.20
2022-12-15T11:24:29.122Z,25.00
2022-12-15T11:25:29.097Z,24.00
2022-12-15T11:26:29.062Z,25.40
2022-12-15T11:27:29.034Z,23.80
2022-12-15T11:28:29.005Z,29.50
2022-12-15T11:29:28.992Z,24.90
2022-12-15T11:30:28.942Z,26.10
2022-12-15T11:31:28.914Z,26.20
2022-12-15T11:32:28.879Z,23.60
2022-12-15T11:33:29.235Z,27.10
2022-12-15T11:34:28.818Z,24.60
2022-12-15T11:35:28.789Z,26.60
2022-12-15T11:36:28.758Z,25.70
2022-12-15T11:37:34.287Z,23.60
2022-12-15T11:38:28.780Z,26.50
2022-12-15T11:39:28.667Z,25.80
2022-12-15T11:40:28.635Z,24.40
2022-12-15T11:41:28.608Z,23.50
2022-12-15T11:42:28.573Z,26.50
2022-12-15T11:43:29.017Z,24.10
2022-12-15T11:44:28.513Z,25.20
2022-12-15T11:45:28.512Z,23.80
2022-12-15T11:46:28.450Z,23.10
2022-12-15T11:47:28.420Z,23.90
2022-12-15T11:48:28.390Z,24.50
2022-12-15T11:49:28.357Z,23.30
2022-12-15T11:50:28.334Z,26.60
2022-12-15T11:51:28.299Z,26.20
2022-12-15T11:52:28.264Z,24.00
2022-12-15T11:53:28.649Z,26.20
2022-12-15T11:54:28.206Z,26.00
2022-12-15T11:55:33.188Z,32.40
2022-12-15T11:56:28.147Z,23.60
2022-12-15T11:57:28.113Z,23.60
2022-12-15T11:58:28.434Z,24.60
2022-12-15T11:59:28.054Z,24.80
2022-12-15T12:00:28.015Z,21.60
2022-12-15T12:01:28.088Z,26.40
2022-12-15T12:02:28.092Z,26.50
2022-12-15T12:03:27.924Z,26.30
2022-12-15T12:04:27.891Z,29.60
2022-12-15T12:05:27.865Z,25.50
2022-12-15T12:06:27.828Z,26.80
2022-12-15T12:07:27.798Z,27.10
2022-12-15T12:08:27.773Z,26.70
2022-12-15T12:09:27.739Z,27.10
2022-12-15T12:10:27.706Z,26.40
2022-12-15T12:11:27.714Z,25.90
2022-12-15T12:12:27.641Z,26.00
2022-12-15T12:13:27.612Z,39.50
2022-12-15T12:14:27.577Z,34.10
2022-12-15T12:15:27.550Z,30.70
2022-12-15T12:16:27.518Z,32.80
2022-12-15T12:17:27.512Z,28.80
2022-12-15T12:18:27.454Z,28.30
2022-12-15T12:19:27.532Z,27.00
2022-12-15T12:20:27.391Z,23.50
2022-12-15T12:21:27.362Z,27.80
2022-12-15T12:22:27.330Z,25.70
2022-12-15T12:23:27.300Z,25.20
2022-12-15T12:24:27.269Z,25.80
2022-12-15T12:25:27.247Z,28.20
2022-12-15T12:26:27.212Z,30.30
2022-12-15T12:27:27.174Z,33.00
2022-12-15T12:28:27.143Z,31.60
2022-12-15T12:29:27.116Z,33.20
2022-12-15T12:30:27.081Z,32.30
2022-12-15T12:31:27.052Z,35.00
2022-12-15T12:32:27.022Z,36.00
2022-12-15T12:33:27.009Z,33.90
2022-12-15T12:34:26.955Z,41.50
2022-12-15T12:35:30.654Z,37.30
2022-12-15T12:36:26.893Z,37.50
2022-12-15T12:37:26.866Z,31.40
2022-12-15T12:38:26.832Z,32.50
2022-12-15T12:39:26.802Z,30.50
2022-12-15T12:40:26.770Z,34.40
2022-12-15T12:41:26.747Z,31.80
2022-12-15T12:42:26.705Z,31.90
2022-12-15T12:43:26.679Z,32.90
2022-12-15T12:44:26.647Z,29.20
2022-12-15T12:45:26.614Z,30.00
2022-12-15T12:46:26.581Z,36.10
2022-12-15T12:47:26.554Z,32.20
2022-12-15T12:48:26.519Z,36.20
2022-12-15T12:49:27.055Z,33.40
2022-12-15T12:50:26.455Z,33.40
2022-12-15T12:51:26.431Z,37.40
2022-12-15T12:52:26.413Z,32.70
2022-12-15T12:53:26.364Z,36.80